createdAt,value
2019-04-03T00:01:42.465Z,101074.70
2019-04-03T00:04:13.184Z,101071.67
2019-04-03T00:06:44.010Z,101075.20
2019-04-03T00:09:14.993Z,101070.94
2019-04-03T00:11:45.776Z,101069.34
2019-04-03T00:14:17.711Z,101069.95
2019-04-03T00:16:48.520Z,101072.05
2019-04-03T00:19:38.000Z,101067.83
2019-04-03T00:22:08.842Z,101061.97
2019-04-03T00:24:39.632Z,101061.22
2019-04-03T00:27:10.609Z,101057.83
2019-04-03T00:29:41.231Z,101061.78
2019-04-03T00:32:11.796Z,101051.36
2019-04-03T00:34:42.547Z,101049.80
2019-04-03T00:37:13.536Z,101053.20
2019-04-03T00:39:44.268Z,101043.32
2019-04-03T00:42:14.885Z,101046.34
2019-04-03T00:44:45.640Z,101049.49
2019-04-03T00:47:16.429Z,101045.22
2019-04-03T00:49:47.367Z,101038.94
2019-04-03T00:52:18.163Z,101041.34
2019-04-03T00:54:52.191Z,101029.16
2019-04-03T00:57:22.988Z,101026.57
2019-04-03T00:59:54.689Z,101026.19
2019-04-03T01:02:28.284Z,101027.05
2019-04-03T01:04:59.120Z,101031.61
2019-04-03T01:07:29.899Z,101020.70
2019-04-03T01:10:00.526Z,101022.64
2019-04-03T01:12:31.525Z,101024.05
2019-04-03T01:15:02.533Z,101011.40
2019-04-03T01:17:34.869Z,101010.11
2019-04-03T01:20:06.957Z,101008.57
2019-04-03T01:22:37.873Z,101012.25
2019-04-03T01:25:09.979Z,101005.47
2019-04-03T01:27:41.587Z,101009.67
2019-04-03T01:30:13.941Z,101007.67
2019-04-03T01:32:46.803Z,101003.80
2019-04-03T01:35:17.987Z,101005.36
2019-04-03T01:37:50.028Z,101004.56
2019-04-03T01:40:21.087Z,100992.82
2019-04-03T01:42:52.776Z,100997.03
2019-04-03T01:45:25.900Z,101000.73
2019-04-03T01:47:58.232Z,101000.36
2019-04-03T01:50:29.284Z,100996.12
2019-04-03T01:53:02.744Z,101001.27
2019-04-03T01:55:34.491Z,101001.59
2019-04-03T01:58:06.549Z,101001.64
2019-04-03T02:00:38.180Z,100996.46
2019-04-03T02:03:10.307Z,100999.98
2019-04-03T02:05:43.987Z,100996.64
2019-04-03T02:08:15.369Z,100999.17
2019-04-03T02:10:48.259Z,100997.08
2019-04-03T02:13:21.147Z,100991.04
2019-04-03T02:15:52.559Z,100986.77
2019-04-03T02:18:25.154Z,100991.22
2019-04-03T02:20:57.796Z,100990.53
2019-04-03T02:23:30.349Z,100992.95
2019-04-03T02:26:02.289Z,100991.82
2019-04-03T02:28:34.922Z,100995.65
2019-04-03T02:31:05.289Z,100989.59
2019-04-03T02:33:36.135Z,100988.33
2019-04-03T02:36:07.107Z,100992.42
2019-04-03T02:38:37.910Z,100989.29
2019-04-03T02:41:08.977Z,100993.97
2019-04-03T02:43:45.584Z,100990.59
2019-04-03T02:46:14.770Z,100997.11
2019-04-03T02:48:45.693Z,100994.41
2019-04-03T02:51:16.987Z,100989.48
2019-04-03T02:53:49.000Z,100993.91
2019-04-03T02:56:19.607Z,100990.77
2019-04-03T02:58:53.356Z,100986.77
2019-04-03T03:01:22.514Z,100987.40
2019-04-03T03:03:53.222Z,100989.31
2019-04-03T03:06:24.444Z,100987.64
2019-04-03T03:08:55.539Z,100985.87
2019-04-03T03:11:27.255Z,100986.78
2019-04-03T03:13:58.032Z,100987.66
2019-04-03T03:16:29.072Z,100988.52
2019-04-03T03:19:01.528Z,100993.20
2019-04-03T03:21:33.315Z,100991.04
2019-04-03T03:24:04.918Z,100991.52
2019-04-03T03:26:37.370Z,100995.04
2019-04-03T03:29:17.971Z,100981.83
2019-04-03T03:32:01.357Z,100994.55
2019-04-03T03:34:15.509Z,100995.45
2019-04-03T03:36:47.525Z,100991.66
2019-04-03T03:39:18.907Z,100990.97
2019-04-03T03:41:50.248Z,100991.77
2019-04-03T03:44:23.110Z,100988.38
2019-04-03T03:46:55.252Z,100993.42
2019-04-03T03:49:27.662Z,100997.44
2019-04-03T03:52:02.906Z,100995.32
2019-04-03T03:54:31.804Z,100996.01
2019-04-03T03:57:04.743Z,100997.62
2019-04-03T03:59:36.088Z,100997.38
2019-04-03T04:02:06.736Z,100991.16
2019-04-03T04:04:37.848Z,100993.93
2019-04-03T04:07:08.549Z,100988.02
2019-04-03T04:09:39.363Z,100991.80
2019-04-03T04:12:10.265Z,100997.36
2019-04-03T04:14:41.595Z,101001.16
2019-04-03T04:17:16.886Z,101010.98
2019-04-03T04:19:47.523Z,101010.53
2019-04-03T04:22:20.845Z,101012.38
2019-04-03T04:24:51.681Z,101017.84
2019-04-03T04:27:22.950Z,101019.02
2019-04-03T04:29:54.603Z,101013.17
2019-04-03T04:32:25.464Z,101018.45
2019-04-03T04:34:56.076Z,101021.70
2019-04-03T04:37:28.157Z,101024.34
2019-04-03T04:39:59.693Z,101021.98
2019-04-03T04:42:34.354Z,101029.00
2019-04-03T04:45:05.033Z,101023.05
2019-04-03T04:47:35.799Z,101032.47
2019-04-03T04:50:06.775Z,101035.05
2019-04-03T04:52:37.646Z,101028.50
2019-04-03T04:55:08.428Z,101032.75
2019-04-03T04:57:41.342Z,101030.16
2019-04-03T05:00:15.105Z,101034.39
2019-04-03T05:02:44.918Z,101029.86
2019-04-03T05:05:15.385Z,101038.62
2019-04-03T05:07:46.093Z,101028.62
2019-04-03T05:10:17.996Z,101022.27
2019-04-03T05:12:48.679Z,101026.95
2019-04-03T05:15:23.471Z,101017.86
2019-04-03T05:17:52.919Z,101034.25
2019-04-03T05:20:23.432Z,101028.03
2019-04-03T05:22:55.410Z,101030.27
2019-04-03T05:25:26.249Z,101024.23
2019-04-03T05:27:58.416Z,101030.20
2019-04-03T05:30:36.815Z,101025.10
2019-04-03T05:33:09.018Z,101025.33
2019-04-03T05:35:45.585Z,101031.91
2019-04-03T05:38:15.637Z,101032.63
2019-04-03T05:40:46.327Z,101028.87
2019-04-03T05:43:17.050Z,101022.64
2019-04-03T05:45:48.160Z,101018.83
2019-04-03T05:48:20.006Z,101011.06
2019-04-03T05:50:50.922Z,101016.58
2019-04-03T05:53:21.634Z,101017.08
2019-04-03T05:55:52.186Z,101016.37
2019-04-03T05:58:24.139Z,101014.91
2019-04-03T06:01:04.462Z,101019.78
2019-04-03T06:03:40.385Z,101022.39
2019-04-03T06:06:01.305Z,101038.92
2019-04-03T06:19:11.025Z,101033.44
2019-04-03T06:21:41.978Z,101031.14
2019-04-03T06:24:12.385Z,101040.57
2019-04-03T06:26:44.899Z,101030.03
2019-04-03T06:29:15.097Z,101038.59
2019-04-03T06:31:46.481Z,101043.14
2019-04-03T06:34:16.983Z,101040.41
2019-04-03T06:36:49.784Z,101042.45
2019-04-03T06:39:22.303Z,101048.62
2019-04-03T06:41:51.545Z,101041.25
2019-04-03T06:44:23.082Z,101055.77
2019-04-03T06:46:55.103Z,101039.23
2019-04-03T06:49:25.932Z,101051.47
2019-04-03T06:51:56.878Z,101058.50
2019-04-03T06:54:27.829Z,101052.77
2019-04-03T06:56:58.871Z,101057.34
2019-04-03T06:59:30.527Z,101065.34
2019-04-03T07:02:01.409Z,101081.27
2019-04-03T07:04:33.131Z,101063.41
2019-04-03T07:07:03.969Z,101064.95
2019-04-03T07:09:36.664Z,101054.96
2019-04-03T07:12:08.836Z,101072.22
2019-04-03T07:14:39.508Z,101068.69
2019-04-03T07:17:10.208Z,101082.23
2019-04-03T07:19:42.281Z,101081.52
2019-04-03T07:22:13.332Z,101080.73
2019-04-03T07:24:44.069Z,101090.36
2019-04-03T07:27:15.548Z,101084.00
2019-04-03T07:29:46.865Z,101081.57
2019-04-03T07:32:19.728Z,101082.61
2019-04-03T07:34:50.333Z,101084.00
2019-04-03T07:37:25.133Z,101089.41
2019-04-03T07:39:58.335Z,101088.06
2019-04-03T07:42:27.969Z,101099.27
2019-04-03T07:45:00.043Z,101099.97
2019-04-03T07:47:31.408Z,101103.70
2019-04-03T07:50:03.492Z,101094.79
2019-04-03T07:52:34.876Z,101113.02
2019-04-03T07:55:05.932Z,101089.77
2019-04-03T07:57:37.488Z,101112.87
2019-04-03T08:00:11.131Z,101095.53
2019-04-03T08:02:47.467Z,101109.72
2019-04-03T08:05:16.388Z,101108.95
2019-04-03T08:07:47.466Z,101108.33
2019-04-03T08:10:18.415Z,101106.62
2019-04-03T08:12:49.978Z,101098.37
2019-04-03T08:15:20.755Z,101097.09
2019-04-03T08:17:51.536Z,101110.14
2019-04-03T08:20:23.535Z,101107.36
2019-04-03T08:22:54.268Z,101112.27
2019-04-03T08:25:26.548Z,101113.66
2019-04-03T08:27:57.664Z,101108.72
2019-04-03T08:30:28.399Z,101103.80
2019-04-03T08:32:58.977Z,101109.06
2019-04-03T08:35:29.778Z,101104.12
2019-04-03T08:38:00.324Z,101098.72
2019-04-03T08:40:31.220Z,101097.38
2019-04-03T08:43:03.052Z,101097.83
2019-04-03T08:45:33.644Z,101090.62
2019-04-03T08:48:06.362Z,101095.22
2019-04-03T08:50:37.124Z,101094.63
2019-04-03T08:53:08.756Z,101092.74
2019-04-03T08:55:39.333Z,101089.72
2019-04-03T08:58:10.018Z,101084.73
2019-04-03T09:00:40.802Z,101079.60
2019-04-03T09:03:12.262Z,101086.47
2019-04-03T09:05:44.319Z,101092.45
2019-04-03T09:08:14.833Z,101086.10
2019-04-03T09:10:45.728Z,101087.02
2019-04-03T09:13:21.864Z,101084.55
2019-04-03T09:15:50.663Z,101087.19
2019-04-03T09:18:23.197Z,101078.17
2019-04-03T09:20:53.721Z,101070.45
2019-04-03T09:23:25.093Z,101075.55
2019-04-03T09:25:56.275Z,101080.23
2019-04-03T09:28:26.844Z,101079.33
2019-04-03T09:30:57.729Z,101074.16
2019-04-03T09:33:30.250Z,101077.59
2019-04-03T09:36:04.528Z,101076.42
2019-04-03T09:38:36.517Z,101073.95
2019-04-03T09:41:07.623Z,101070.05
2019-04-03T09:43:39.683Z,101074.70
2019-04-03T09:46:11.391Z,101070.75
2019-04-03T09:48:42.920Z,101067.86
2019-04-03T09:51:13.402Z,101067.29
2019-04-03T09:53:44.342Z,101065.67
2019-04-03T09:56:14.672Z,101067.66
2019-04-03T09:58:46.190Z,101062.88
2019-04-03T10:01:18.770Z,101058.99
2019-04-03T10:03:49.272Z,101058.96
2019-04-03T10:06:19.941Z,101053.83
2019-04-03T10:08:51.449Z,101058.51
2019-04-03T10:11:22.186Z,101056.16
2019-04-03T10:13:53.046Z,101049.75
2019-04-03T10:16:24.098Z,101042.66
2019-04-03T10:18:54.848Z,101040.83
2019-04-03T10:21:25.344Z,101044.30
2019-04-03T10:23:59.091Z,101041.50
2019-04-03T10:26:31.707Z,101035.02
2019-04-03T10:29:05.144Z,101029.87
2019-04-03T10:31:35.740Z,101031.66
2019-04-03T10:34:06.449Z,101024.19
2019-04-03T10:36:41.609Z,101028.66
2019-04-03T10:39:13.597Z,101027.23
2019-04-03T10:41:47.441Z,101030.05
2019-04-03T10:44:18.262Z,101022.78
2019-04-03T10:46:49.928Z,101025.48
2019-04-03T10:49:22.343Z,101034.83
2019-04-03T10:51:56.932Z,101046.08
2019-04-03T10:54:27.570Z,101042.55
2019-04-03T10:56:58.671Z,101029.02
2019-04-03T10:59:29.057Z,101031.52
2019-04-03T11:05:27.865Z,101022.91
2019-04-03T11:07:59.251Z,101008.63
2019-04-03T11:10:29.824Z,100999.42
2019-04-03T11:13:02.805Z,101007.08
2019-04-03T11:15:33.674Z,101004.17
2019-04-03T11:18:07.000Z,100997.84
2019-04-03T11:20:40.286Z,100996.78
2019-04-03T11:23:11.300Z,100995.14
2019-04-03T11:25:42.281Z,100986.36
2019-04-03T11:28:14.125Z,100996.43
2019-04-03T11:30:45.174Z,100985.53
2019-04-03T11:33:15.930Z,100988.01
2019-04-03T11:35:47.239Z,100986.82
2019-04-03T11:38:26.293Z,100988.67
2019-04-03T11:40:50.760Z,100988.64
2019-04-03T11:43:21.925Z,100979.50
2019-04-03T11:45:52.585Z,100979.98
2019-04-03T11:48:26.528Z,100980.29
2019-04-03T11:50:57.666Z,100969.84
2019-04-03T11:53:28.746Z,100966.67
2019-04-03T11:55:59.030Z,100972.73
2019-04-03T11:58:29.940Z,100972.76
2019-04-03T12:01:00.466Z,100971.55
2019-04-03T12:03:31.125Z,100970.93
2019-04-03T12:06:01.699Z,100973.94
2019-04-03T12:08:32.237Z,100957.05
2019-04-03T12:11:05.330Z,100960.59
2019-04-03T12:13:35.685Z,100962.73
2019-04-03T12:16:08.389Z,100964.52
2019-04-03T12:18:39.389Z,100961.59
2019-04-03T12:21:13.648Z,100945.02
2019-04-03T12:23:42.574Z,100951.34
2019-04-03T12:26:13.349Z,100947.60
2019-04-03T12:28:43.848Z,100949.09
2019-04-03T12:31:14.631Z,100940.69
2019-04-03T12:33:53.955Z,100942.77
2019-04-03T12:36:17.409Z,100953.53
2019-04-03T12:38:47.774Z,100950.27
2019-04-03T12:41:18.394Z,100943.66
2019-04-03T12:43:49.951Z,100947.24
2019-04-03T12:46:37.491Z,100949.95
2019-04-03T12:49:09.922Z,100950.22
2019-04-03T12:51:40.277Z,100949.95
2019-04-03T12:54:12.805Z,100941.98
2019-04-03T12:56:43.506Z,100950.45
2019-04-03T12:59:14.025Z,100946.84
2019-04-03T13:01:44.688Z,100937.61
2019-04-03T13:04:15.431Z,100949.73
2019-04-03T13:06:46.136Z,100945.77
2019-04-03T13:09:17.411Z,100951.27
2019-04-03T13:11:49.822Z,100956.53
2019-04-03T13:14:26.094Z,100944.06
2019-04-03T13:16:54.641Z,100948.42
2019-04-03T13:19:25.635Z,100933.34
2019-04-03T13:21:57.106Z,100942.16
2019-04-03T13:24:28.228Z,100937.67
2019-04-03T13:26:59.609Z,100940.20
2019-04-03T13:29:30.906Z,100940.91
2019-04-03T13:32:01.850Z,100939.69
2019-04-03T13:34:32.784Z,100934.05
2019-04-03T13:37:04.558Z,100939.48
2019-04-03T13:39:35.065Z,100956.36
2019-04-03T13:42:06.312Z,100943.94
2019-04-03T13:44:37.447Z,100940.16
2019-04-03T13:47:09.107Z,100943.19
2019-04-03T13:49:40.277Z,100939.15
2019-04-03T13:52:11.005Z,100944.87
2019-04-03T13:54:41.548Z,100933.94
2019-04-03T13:57:14.655Z,100946.98
2019-04-03T13:59:44.431Z,100939.28
2019-04-03T14:02:15.253Z,100934.64
2019-04-03T14:04:48.442Z,100941.28
2019-04-03T14:07:18.903Z,100931.36
2019-04-03T14:09:53.748Z,100930.80
2019-04-03T14:12:22.350Z,100928.64
2019-04-03T14:14:53.572Z,100928.12
2019-04-03T14:17:24.779Z,100925.59
2019-04-03T14:19:55.429Z,100929.51
2019-04-03T14:22:26.020Z,100930.29
2019-04-03T14:24:56.604Z,100925.30
2019-04-03T14:27:30.554Z,100931.98
2019-04-03T14:29:59.861Z,100932.34
2019-04-03T14:32:30.433Z,100928.16
2019-04-03T14:35:09.507Z,100927.78
2019-04-03T14:37:33.309Z,100927.11
2019-04-03T14:40:04.673Z,100929.09
2019-04-03T14:42:35.457Z,100926.08
2019-04-03T14:45:07.199Z,100922.46
2019-04-03T14:47:37.619Z,100922.33
2019-04-03T14:50:09.078Z,100922.27
2019-04-03T14:52:39.860Z,100919.15
2019-04-03T14:55:18.082Z,100917.94
2019-04-03T14:57:42.860Z,100919.14
2019-04-03T15:00:27.434Z,100908.97
2019-04-03T15:02:47.578Z,100912.48
2019-04-03T15:05:18.021Z,100903.22
2019-04-03T15:07:50.606Z,100903.22
2019-04-03T15:10:22.947Z,100908.66
2019-04-03T15:12:53.580Z,100905.44
2019-04-03T15:15:26.370Z,100904.67
2019-04-03T15:17:56.668Z,100902.98
2019-04-03T15:20:27.498Z,100899.78
2019-04-03T15:22:58.015Z,100892.92
2019-04-03T15:25:29.530Z,100898.75
2019-04-03T15:28:00.487Z,100898.75
2019-04-03T15:30:31.401Z,100890.95
2019-04-03T15:33:02.427Z,100892.42
2019-04-03T15:35:34.242Z,100872.78
2019-04-03T15:38:05.299Z,100883.64
2019-04-03T15:40:36.828Z,100883.64
2019-04-03T15:43:11.928Z,100879.67
2019-04-03T15:45:41.551Z,100891.02
2019-04-03T15:48:12.408Z,100884.15
2019-04-03T15:50:43.160Z,100884.15
2019-04-03T15:53:13.807Z,100873.49
2019-04-03T15:55:44.832Z,100880.09
2019-04-03T15:58:15.320Z,100880.09
2019-04-03T16:00:45.867Z,100872.28
2019-04-03T16:03:17.551Z,100872.28
2019-04-03T16:05:49.117Z,100875.28
2019-04-03T16:08:19.681Z,100875.89
2019-04-03T16:10:50.681Z,100875.89
2019-04-03T16:13:22.088Z,100879.27
2019-04-03T16:15:56.303Z,100881.02
2019-04-03T16:18:25.273Z,100873.05
2019-04-03T16:20:55.988Z,100869.46
2019-04-03T16:23:28.542Z,100878.89
2019-04-03T16:25:59.210Z,100882.33
2019-04-03T16:28:33.285Z,100880.87
2019-04-03T16:31:03.719Z,100880.53
2019-04-03T16:33:35.800Z,100882.47
2019-04-03T16:36:07.798Z,100882.14
2019-04-03T16:38:39.194Z,100885.20
2019-04-03T16:41:11.285Z,100877.16
2019-04-03T16:43:43.960Z,100883.28
2019-04-03T16:46:14.695Z,100883.28
2019-04-03T16:48:45.551Z,100885.33
2019-04-03T16:51:16.631Z,100884.94
2019-04-03T16:53:47.200Z,100885.53
2019-04-03T16:56:18.967Z,100890.88
2019-04-03T16:58:51.125Z,100887.77
2019-04-03T17:01:21.665Z,100883.16
2019-04-03T17:03:52.573Z,100890.73
2019-04-03T17:06:23.328Z,100887.95
2019-04-03T17:08:54.427Z,100888.89
2019-04-03T17:11:25.058Z,100882.50
2019-04-03T17:13:57.106Z,100889.78
2019-04-03T17:16:27.692Z,100888.73
2019-04-03T17:18:58.289Z,100882.42
2019-04-03T17:21:35.762Z,100892.53
2019-04-03T17:24:01.272Z,100894.42
2019-04-03T17:26:33.081Z,100894.87
2019-04-03T17:29:06.019Z,100896.95
2019-04-03T17:31:36.867Z,100900.70
2019-04-03T17:34:08.371Z,100903.22
2019-04-03T17:36:40.249Z,100913.02
2019-04-03T17:40:05.705Z,100906.64
2019-04-03T17:42:37.140Z,100909.13
2019-04-03T17:45:09.260Z,100908.02
2019-04-03T17:47:39.806Z,100910.12
2019-04-03T17:50:10.767Z,100909.38
2019-04-03T17:52:41.417Z,100910.34
2019-04-03T17:55:12.906Z,100908.19
2019-04-03T17:57:45.329Z,100909.89
2019-04-03T18:00:18.789Z,100911.83
2019-04-03T18:02:49.439Z,100912.58
2019-04-03T18:05:20.281Z,100908.45
2019-04-03T18:07:51.008Z,100916.77
2019-04-03T18:10:23.124Z,100917.98
2019-04-03T18:12:53.507Z,100918.72
2019-04-03T18:15:27.235Z,100925.80
2019-04-03T18:18:01.004Z,100921.75
2019-04-03T18:20:35.589Z,100923.87
2019-04-03T18:23:06.395Z,100922.91
2019-04-03T18:25:37.073Z,100922.34
2019-04-03T18:28:07.784Z,100923.70
2019-04-03T18:30:38.509Z,100922.41
2019-04-03T18:33:09.457Z,100919.33
2019-04-03T18:35:40.532Z,100921.41
2019-04-03T18:38:12.206Z,100919.54
2019-04-03T18:40:45.485Z,100916.09
2019-04-03T18:43:15.111Z,100916.71
2019-04-03T18:45:47.473Z,100914.48
2019-04-03T18:48:19.520Z,100918.01
2019-04-03T18:50:50.359Z,100918.08
2019-04-03T18:53:21.023Z,100916.82
2019-04-03T18:55:53.205Z,100922.22
2019-04-03T18:58:24.022Z,100920.14
2019-04-03T19:00:55.446Z,100916.31
2019-04-03T19:03:26.084Z,100918.98
2019-04-03T19:05:56.654Z,100920.99
2019-04-03T19:08:27.394Z,100915.02
2019-04-03T19:11:02.675Z,100921.20
2019-04-03T19:13:30.235Z,100917.55
2019-04-03T19:16:02.415Z,100920.21
2019-04-03T19:18:33.220Z,100920.86
2019-04-03T19:21:03.983Z,100920.48
2019-04-03T19:23:34.680Z,100920.48
2019-04-03T19:26:06.295Z,100916.29
2019-04-03T19:28:36.764Z,100920.77
2019-04-03T19:31:09.275Z,100911.47
2019-04-03T19:33:40.185Z,100918.61
2019-04-03T19:36:11.626Z,100919.33
2019-04-03T19:38:42.221Z,100918.41
2019-04-03T19:41:12.997Z,100920.70
2019-04-03T19:43:44.051Z,100921.86
2019-04-03T19:46:17.275Z,100920.63
2019-04-03T19:48:49.305Z,100926.02
2019-04-03T19:51:19.818Z,100934.25
2019-04-03T19:53:58.951Z,100925.95
2019-04-03T19:56:25.736Z,100921.28
2019-04-03T19:58:55.391Z,100929.58
2019-04-03T20:01:26.098Z,100929.98
2019-04-03T20:03:56.714Z,100927.63
2019-04-03T20:06:27.484Z,100929.38
2019-04-03T20:08:59.016Z,100927.25
2019-04-03T20:11:30.602Z,100928.48
2019-04-03T20:14:01.184Z,100923.66
2019-04-03T20:16:32.363Z,100927.70
2019-04-03T20:19:02.982Z,100930.80
2019-04-03T20:21:34.057Z,100929.98
2019-04-03T20:24:06.049Z,100929.30
2019-04-03T20:26:36.650Z,100923.80
2019-04-03T20:29:07.534Z,100928.28
2019-04-03T20:31:40.642Z,100928.41
2019-04-03T20:34:12.830Z,100930.09
2019-04-03T20:36:42.689Z,100925.17
2019-04-03T20:39:13.392Z,100926.81
2019-04-03T20:41:43.967Z,100923.56
2019-04-03T20:44:16.595Z,100923.36
2019-04-03T20:46:46.931Z,100923.67
2019-04-03T20:49:17.518Z,100918.48
2019-04-03T20:51:48.744Z,100922.58
2019-04-03T20:54:21.380Z,100920.12
2019-04-03T20:56:57.667Z,100923.73
2019-04-03T20:59:25.670Z,100921.84
2019-04-03T21:01:56.624Z,100915.52
2019-04-03T21:04:27.403Z,100919.69
2019-04-03T21:06:58.108Z,100915.64
2019-04-03T21:09:30.452Z,100917.07
2019-04-03T21:12:04.712Z,100920.30
2019-04-03T21:14:34.066Z,100916.39
2019-04-03T21:17:04.672Z,100911.91
2019-04-03T21:19:35.510Z,100908.45
2019-04-03T21:22:06.167Z,100913.28
2019-04-03T21:24:36.869Z,100905.41
2019-04-03T21:27:08.829Z,100913.40
2019-04-03T21:29:40.251Z,100905.33
2019-04-03T21:32:11.435Z,100906.81
2019-04-03T21:34:42.895Z,100906.08
2019-04-03T21:37:14.213Z,100904.03
2019-04-03T21:39:44.868Z,100902.09
2019-04-03T21:42:15.425Z,100899.55
2019-04-03T21:44:46.194Z,100895.38
2019-04-03T21:47:17.759Z,100901.31
2019-04-03T21:49:48.521Z,100896.91
2019-04-03T21:52:20.919Z,100897.91
2019-04-03T21:54:51.585Z,100898.43
2019-04-03T21:57:23.549Z,100898.84
2019-04-03T21:59:54.169Z,100895.09
2019-04-03T22:02:24.859Z,100895.23
2019-04-03T22:04:55.432Z,100893.16
2019-04-03T22:07:28.265Z,100890.11
2019-04-03T22:10:00.003Z,100899.59
2019-04-03T22:12:30.976Z,100892.31
2019-04-03T22:15:01.744Z,100897.25
2019-04-03T22:17:32.509Z,100892.31
2019-04-03T22:20:02.983Z,100892.13
2019-04-03T22:22:33.843Z,100888.78
2019-04-03T22:25:08.647Z,100886.22
2019-04-03T22:27:37.801Z,100884.40
2019-04-03T22:30:08.619Z,100883.44
2019-04-03T22:32:39.496Z,100883.39
2019-04-03T22:35:10.424Z,100883.06
2019-04-03T22:37:41.042Z,100878.23
2019-04-03T22:40:12.873Z,100879.38
2019-04-03T22:42:45.326Z,100883.50
2019-04-03T22:45:16.013Z,100872.20
2019-04-03T22:47:48.034Z,100870.39
2019-04-03T22:50:20.565Z,100871.83
2019-04-03T22:52:51.630Z,100863.45
2019-04-03T22:55:22.115Z,100865.27
2019-04-03T22:57:53.092Z,100864.93
2019-04-03T23:00:23.897Z,100861.91
2019-04-03T23:02:56.806Z,100858.11
2019-04-03T23:05:27.604Z,100852.22
2019-04-03T23:07:59.791Z,100853.00
2019-04-03T23:10:30.419Z,100851.27
2019-04-03T23:13:01.004Z,100852.84
2019-04-03T23:15:34.399Z,100849.12
2019-04-03T23:18:05.008Z,100850.05
2019-04-03T23:20:36.375Z,100850.56
2019-04-03T23:23:07.740Z,100848.82
2019-04-03T23:25:38.292Z,100846.44
2019-04-03T23:28:08.940Z,100844.66
2019-04-03T23:30:40.994Z,100847.66
2019-04-03T23:33:12.379Z,100840.19
2019-04-03T23:35:43.079Z,100845.14
2019-04-03T23:38:13.850Z,100835.34
2019-04-03T23:40:44.519Z,100835.55
2019-04-03T23:43:16.548Z,100823.67
2019-04-03T23:45:47.244Z,100827.63
2019-04-03T23:48:18.463Z,100821.79
2019-04-03T23:50:52.374Z,100819.77
2019-04-03T23:53:21.798Z,100821.89
2019-04-03T23:55:52.369Z,100817.09
2019-04-03T23:58:23.108Z,100817.74
